Time;durP1;ratioP1;P1;durP2;ratioP2;P2;SDS_P1;SDS_P2;PMS_P1;PMS_P2;Temp;Humidity;BMP_temperature;BMP_pressure;BME280_temperature;BME280_humidity;BME280_pressure;Samples;Min_cycle;Max_cycle;Signal;HPM_P1;HPM_P2
2023/05/25 00:01:42;;;;;;;8.15;3.72;;;11.60;99.90;;;;;;6242392;23;20024;-78
2023/05/25 00:04:09;;;;;;;12.20;4.05;;;11.70;99.90;;;;;;6241707;23;20009;-78
2023/05/25 00:06:36;;;;;;;8.73;4.50;;;11.60;99.90;;;;;;6215406;23;20315;-78
2023/05/25 00:09:02;;;;;;;7.80;3.88;;;11.70;99.90;;;;;;6242507;23;20008;-78
2023/05/25 00:11:27;;;;;;;10.43;4.05;;;11.60;99.90;;;;;;6242060;23;20008;-79
2023/05/25 00:13:53;;;;;;;9.93;4.88;;;11.70;99.90;;;;;;6242207;23;20031;-78
2023/05/25 00:16:19;;;;;;;7.05;3.88;;;11.70;99.90;;;;;;6215218;23;20004;-78
2023/05/25 00:18:47;;;;;;;9.27;4.25;;;11.60;99.90;;;;;;6214679;23;20004;-78
2023/05/25 00:21:14;;;;;;;10.88;4.95;;;11.60;99.90;;;;;;6242055;23;19996;-78
2023/05/25 00:23:40;;;;;;;12.70;4.90;;;11.60;99.90;;;;;;6242324;23;20027;-78
2023/05/25 00:26:05;;;;;;;8.82;3.58;;;11.60;99.90;;;;;;6242039;23;20438;-78
2023/05/25 00:28:31;;;;;;;10.60;4.25;;;11.60;99.90;;;;;;6215330;23;20000;-78
2023/05/25 00:30:56;;;;;;;11.30;5.38;;;11.60;99.90;;;;;;6215517;23;19996;-78
2023/05/25 00:33:22;;;;;;;11.38;4.45;;;11.50;99.90;;;;;;6240803;23;20038;-78
2023/05/25 00:35:47;;;;;;;11.60;5.45;;;11.60;99.90;;;;;;6215507;23;20000;-79
2023/05/25 00:38:14;;;;;;;10.25;4.70;;;11.50;99.90;;;;;;6241568;23;19992;-77
2023/05/25 00:40:40;;;;;;;9.27;4.43;;;11.50;99.90;;;;;;6242236;23;20000;-78
2023/05/25 00:43:08;;;;;;;12.32;4.82;;;11.50;99.90;;;;;;6241866;23;20066;-78
2023/05/25 00:45:34;;;;;;;12.55;4.55;;;11.50;99.90;;;;;;6215145;23;20092;-78
2023/05/25 00:48:00;;;;;;;11.77;4.93;;;11.40;99.90;;;;;;6214801;23;20039;-79
2023/05/25 00:50:37;;;;;;;11.43;4.40;;;11.40;99.90;;;;;;6241883;23;20067;-78
2023/05/25 00:53:05;;;;;;;11.40;4.57;;;11.40;99.90;;;;;;6215014;23;20012;-79
2023/05/25 00:55:36;;;;;;;9.68;4.45;;;11.40;99.90;;;;;;6215079;23;20733;-78
2023/05/25 00:58:03;;;;;;;9.05;5.00;;;11.30;99.90;;;;;;6215359;23;20007;-79
2023/05/25 01:00:31;;;;;;;8.73;4.53;;;11.30;99.90;;;;;;6215026;23;20000;-78
2023/05/25 01:02:58;;;;;;;10.98;4.85;;;11.30;99.90;;;;;;6241507;23;20003;-78
2023/05/25 01:05:28;;;;;;;8.70;4.32;;;11.30;99.90;;;;;;6240774;23;20026;-78
2023/05/25 01:07:56;;;;;;;10.20;4.75;;;11.20;99.90;;;;;;6213541;23;20005;-78
2023/05/25 01:10:23;;;;;;;9.90;4.93;;;11.20;99.90;;;;;;6241273;23;20003;-78
2023/05/25 01:12:52;;;;;;;7.93;4.22;;;11.20;99.90;;;;;;6214872;23;20087;-79
2023/05/25 01:15:18;;;;;;;11.18;5.05;;;11.20;99.90;;;;;;6241501;23;20422;-78
2023/05/25 01:17:44;;;;;;;10.05;4.53;;;11.10;99.90;;;;;;6241733;23;20011;-79
2023/05/25 01:20:11;;;;;;;12.82;5.13;;;11.10;99.90;;;;;;6215396;23;20091;-78
2023/05/25 01:22:50;;;;;;;8.52;5.22;;;11.10;99.90;;;;;;6242845;23;20478;-79
2023/05/25 01:25:22;;;;;;;11.88;5.18;;;11.10;99.90;;;;;;6242043;23;20008;-78
2023/05/25 01:27:53;;;;;;;10.85;4.90;;;11.10;99.90;;;;;;6242822;23;20008;-78
2023/05/25 01:30:21;;;;;;;14.13;5.00;;;11.00;99.90;;;;;;6242572;23;20000;-78
2023/05/25 01:32:48;;;;;;;12.85;5.00;;;11.00;99.90;;;;;;6215301;23;20031;-78
2023/05/25 01:35:15;;;;;;;8.95;5.35;;;11.00;99.90;;;;;;6215268;23;20426;-78
2023/05/25 01:37:45;;;;;;;12.65;5.28;;;10.90;99.90;;;;;;6215917;23;20099;-79
2023/05/25 01:40:12;;;;;;;9.40;5.18;;;10.90;99.90;;;;;;6215325;23;20051;-78
2023/05/25 01:42:37;;;;;;;11.50;5.82;;;10.90;99.90;;;;;;6242577;23;20083;-78
2023/05/25 01:45:03;;;;;;;10.65;4.95;;;10.80;99.90;;;;;;6242395;23;20031;-79
2023/05/25 01:47:43;;;;;;;9.52;5.25;;;10.80;99.90;;;;;;6243583;23;20480;-78
2023/05/25 01:50:32;;;;;;;10.63;5.15;;;10.80;99.90;;;;;;6217424;23;20035;-78
2023/05/25 01:53:02;;;;;;;14.27;5.43;;;10.80;99.90;;;;;;6217596;23;20008;-78
2023/05/25 01:55:32;;;;;;;8.40;5.30;;;10.70;99.90;;;;;;6243995;23;19996;-78
2023/05/25 01:57:58;;;;;;;10.20;5.50;;;10.70;99.90;;;;;;6217574;23;20323;-79
2023/05/25 02:00:25;;;;;;;13.38;5.45;;;10.70;99.90;;;;;;6243612;23;20000;-78
2023/05/25 02:02:52;;;;;;;9.32;5.32;;;10.60;99.90;;;;;;6244186;23;20080;-77
2023/05/25 02:05:20;;;;;;;9.75;5.28;;;10.60;99.90;;;;;;6243907;23;20434;-78
2023/05/25 02:07:45;;;;;;;11.65;4.80;;;10.60;99.90;;;;;;6217417;23;20015;-78
2023/05/25 02:10:11;;;;;;;8.32;5.10;;;10.60;99.90;;;;;;6217097;23;20008;-78
2023/05/25 02:12:37;;;;;;;13.07;5.82;;;10.60;99.90;;;;;;6217419;23;20011;-78
2023/05/25 02:15:03;;;;;;;12.52;5.53;;;10.50;99.90;;;;;;6243955;23;20022;-78
2023/05/25 02:17:29;;;;;;;13.13;4.90;;;10.50;99.90;;;;;;6243748;23;19992;-78
2023/05/25 02:19:54;;;;;;;12.73;4.82;;;10.50;99.90;;;;;;6243928;23;20020;-78
2023/05/25 02:22:21;;;;;;;9.85;5.60;;;10.50;99.90;;;;;;6241743;23;20034;-78
2023/05/25 02:24:47;;;;;;;7.13;4.93;;;10.50;99.90;;;;;;6241181;23;20086;-78
2023/05/25 02:27:13;;;;;;;7.60;4.78;;;10.50;99.90;;;;;;6214092;23;20059;-78
2023/05/25 02:29:38;;;;;;;12.60;5.68;;;10.50;99.90;;;;;;6241397;23;20099;-78
2023/05/25 02:32:05;;;;;;;11.93;5.47;;;10.50;99.90;;;;;;6241517;23;20024;-78
2023/05/25 02:34:31;;;;;;;8.75;5.53;;;10.40;99.90;;;;;;6241610;23;20004;-78
2023/05/25 02:36:56;;;;;;;12.45;5.63;;;10.40;99.90;;;;;;6215010;23;20154;-78
2023/05/25 02:39:22;;;;;;;14.18;5.72;;;10.40;99.90;;;;;;6243712;23;20008;-78
2023/05/25 02:41:47;;;;;;;11.38;5.38;;;10.40;99.90;;;;;;6217184;23;20074;-78
2023/05/25 02:44:13;;;;;;;15.00;5.78;;;10.40;99.90;;;;;;6243084;23;20050;-78
2023/05/25 02:46:38;;;;;;;13.98;5.55;;;10.30;99.90;;;;;;6217000;23;20042;-78
2023/05/25 02:49:04;;;;;;;11.60;5.47;;;10.30;99.90;;;;;;6216852;23;20004;-78
2023/05/25 02:51:31;;;;;;;10.05;5.57;;;10.30;99.90;;;;;;6243920;23;20032;-78
2023/05/25 02:53:56;;;;;;;16.00;6.05;;;10.30;99.90;;;;;;6243974;23;20003;-78
2023/05/25 02:56:22;;;;;;;12.30;5.75;;;10.30;99.90;;;;;;6216741;23;20008;-79
2023/05/25 02:58:48;;;;;;;9.55;5.68;;;10.20;99.90;;;;;;6243284;23;20016;-78
2023/05/25 03:01:17;;;;;;;15.77;6.32;;;10.20;99.90;;;;;;6216610;23;20004;-78
2023/05/25 03:03:44;;;;;;;8.90;6.40;;;10.20;99.90;;;;;;6216617;23;20004;-78
2023/05/25 03:06:11;;;;;;;10.23;6.30;;;10.20;99.90;;;;;;6216332;23;20038;-78
2023/05/25 03:08:38;;;;;;;14.35;6.50;;;10.20;99.90;;;;;;6216990;23;20030;-78
2023/05/25 03:11:03;;;;;;;9.68;5.15;;;10.20;99.90;;;;;;6243586;23;20012;-78
2023/05/25 03:13:29;;;;;;;8.55;5.43;;;10.20;99.90;;;;;;6242861;23;20008;-78
2023/05/25 03:15:54;;;;;;;9.90;6.55;;;10.10;99.90;;;;;;6216784;23;20016;-78
2023/05/25 03:18:20;;;;;;;12.38;7.10;;;10.20;99.90;;;;;;6216433;23;20381;-78
2023/05/25 03:20:45;;;;;;;13.82;6.35;;;10.20;99.90;;;;;;6243545;23;20414;-79
2023/05/25 03:23:11;;;;;;;15.02;7.15;;;10.10;99.90;;;;;;6243227;23;20004;-78
2023/05/25 03:25:36;;;;;;;17.05;6.38;;;10.10;99.90;;;;;;6216449;23;20008;-78
2023/05/25 03:28:02;;;;;;;11.30;5.97;;;10.10;99.90;;;;;;6243068;23;20006;-78
2023/05/25 03:30:29;;;;;;;15.27;6.07;;;10.10;99.90;;;;;;6243410;23;19996;-78
2023/05/25 03:32:54;;;;;;;18.58;6.35;;;10.10;99.90;;;;;;6216585;23;20434;-78
2023/05/25 03:35:20;;;;;;;15.98;6.68;;;10.10;99.90;;;;;;6216245;23;20058;-79
2023/05/25 03:37:46;;;;;;;13.15;6.75;;;10.10;99.90;;;;;;6243469;23;20102;-78
2023/05/25 03:40:11;;;;;;;15.07;6.65;;;10.10;99.90;;;;;;6216318;23;20004;-79
2023/05/25 03:42:37;;;;;;;14.55;5.85;;;10.10;99.90;;;;;;6216681;23;20008;-78
2023/05/25 03:45:03;;;;;;;17.40;6.35;;;10.10;99.90;;;;;;6216770;23;20004;-78
2023/05/25 03:47:29;;;;;;;14.68;6.72;;;10.10;99.90;;;;;;6243380;23;20004;-78
2023/05/25 03:49:55;;;;;;;14.77;7.53;;;10.10;99.90;;;;;;6216437;23;20086;-79
2023/05/25 03:52:20;;;;;;;17.33;7.10;;;10.10;99.90;;;;;;6242971;23;20321;-79
2023/05/25 03:54:46;;;;;;;15.23;6.70;;;10.10;99.90;;;;;;6216590;23;20295;-78
2023/05/25 03:57:11;;;;;;;12.40;7.18;;;10.10;99.90;;;;;;6242281;23;20035;-79
2023/05/25 03:59:37;;;;;;;17.48;7.28;;;10.10;99.90;;;;;;6243145;23;20000;-78
2023/05/25 04:02:02;;;;;;;19.92;6.78;;;10.10;99.90;;;;;;6243297;23;20007;-78
2023/05/25 04:04:28;;;;;;;17.17;7.18;;;10.10;99.90;;;;;;6216124;23;20338;-78
2023/05/25 04:06:54;;;;;;;15.23;7.03;;;10.10;99.90;;;;;;6216531;23;20004;-78
2023/05/25 04:09:19;;;;;;;16.98;6.50;;;10.20;99.90;;;;;;6215696;23;20059;-78
2023/05/25 04:11:45;;;;;;;16.83;7.28;;;10.20;99.90;;;;;;6215801;23;20099;-78
2023/05/25 04:14:11;;;;;;;11.60;6.63;;;10.20;99.90;;;;;;6242677;23;20007;-78
2023/05/25 04:16:40;;;;;;;13.85;7.13;;;10.20;99.90;;;;;;6242984;23;20000;-78
2023/05/25 04:19:05;;;;;;;14.93;6.72;;;10.30;99.90;;;;;;6243137;23;20004;-78
2023/05/25 04:21:31;;;;;;;13.30;7.18;;;10.20;99.90;;;;;;6242975;23;20351;-79
2023/05/25 04:23:57;;;;;;;16.70;6.05;;;10.30;99.90;;;;;;6216423;23;20024;-78
2023/05/25 04:26:25;;;;;;;12.63;6.30;;;10.30;99.90;;;;;;6242139;23;20042;-78
2023/05/25 04:28:53;;;;;;;11.80;6.25;;;10.30;99.90;;;;;;6216825;23;20553;-79
2023/05/25 04:31:19;;;;;;;15.52;6.38;;;10.30;99.90;;;;;;6244250;23;20000;-79
2023/05/25 04:33:45;;;;;;;11.20;6.13;;;10.40;99.90;;;;;;6243446;23;20000;-79
2023/05/25 04:36:10;;;;;;;16.00;6.72;;;10.40;99.90;;;;;;6242858;23;20452;-78
2023/05/25 04:38:36;;;;;;;17.02;6.88;;;10.50;99.90;;;;;;6216134;23;20074;-79
2023/05/25 04:41:02;;;;;;;16.13;7.38;;;10.50;99.90;;;;;;6215660;23;20001;-79
2023/05/25 04:43:28;;;;;;;13.23;6.40;;;10.50;99.90;;;;;;6242423;23;20008;-79
2023/05/25 04:45:55;;;;;;;14.05;6.95;;;10.60;99.90;;;;;;6243173;23;20030;-79
2023/05/25 04:48:21;;;;;;;18.80;8.35;;;10.60;99.90;;;;;;6215072;23;20087;-79
2023/05/25 04:50:47;;;;;;;18.83;7.15;;;10.60;99.90;;;;;;6216109;23;20373;-79
2023/05/25 04:53:12;;;;;;;16.08;8.40;;;10.70;99.90;;;;;;6242435;23;20007;-79
2023/05/25 04:55:38;;;;;;;17.45;8.10;;;10.70;99.90;;;;;;6214704;23;20061;-78
2023/05/25 04:58:04;;;;;;;14.68;7.75;;;10.80;99.90;;;;;;6242217;23;20107;-78
2023/05/25 05:00:30;;;;;;;13.30;7.85;;;10.80;99.90;;;;;;6215404;23;20012;-79
2023/05/25 05:02:57;;;;;;;21.55;8.63;;;10.80;99.90;;;;;;6215440;23;20004;-79
2023/05/25 05:05:23;;;;;;;16.98;8.27;;;10.80;99.90;;;;;;6242114;23;20410;-79
2023/05/25 05:07:48;;;;;;;16.52;7.57;;;10.90;99.90;;;;;;6242459;23;20015;-79
2023/05/25 05:10:14;;;;;;;13.63;8.35;;;10.90;99.90;;;;;;6241324;23;20008;-78
2023/05/25 05:12:39;;;;;;;19.15;8.43;;;11.00;99.90;;;;;;6242030;23;20008;-78
2023/05/25 05:15:06;;;;;;;13.75;7.93;;;11.00;99.90;;;;;;6242192;23;20426;-78
2023/05/25 05:17:31;;;;;;;14.18;8.18;;;11.10;99.90;;;;;;6215039;23;20008;-78
2023/05/25 05:19:57;;;;;;;20.30;7.75;;;11.10;99.90;;;;;;6242260;23;20050;-78
2023/05/25 05:22:22;;;;;;;14.32;8.10;;;11.10;99.90;;;;;;6216843;23;20004;-79
2023/05/25 05:24:48;;;;;;;15.35;7.40;;;11.20;99.90;;;;;;6242890;23;20007;-79
2023/05/25 05:27:14;;;;;;;17.15;8.75;;;11.20;99.90;;;;;;6243514;23;20023;-78
2023/05/25 05:29:41;;;;;;;11.45;8.30;;;11.20;99.90;;;;;;6244152;23;20006;-79
2023/05/25 05:32:06;;;;;;;11.32;6.72;;;11.20;99.90;;;;;;6216728;23;20008;-79
2023/05/25 05:34:33;;;;;;;13.57;7.85;;;11.30;99.90;;;;;;6243827;23;20004;-78
2023/05/25 05:36:59;;;;;;;12.50;7.75;;;11.30;99.90;;;;;;6243978;23;20447;-79
2023/05/25 05:39:25;;;;;;;16.02;8.13;;;11.40;99.90;;;;;;6216086;23;20000;-78
2023/05/25 05:41:51;;;;;;;14.70;7.53;;;11.40;99.90;;;;;;6217145;23;20031;-79
2023/05/25 05:44:16;;;;;;;18.35;9.20;;;11.40;99.90;;;;;;6243783;23;20426;-78
2023/05/25 05:46:42;;;;;;;16.48;8.88;;;11.60;99.90;;;;;;6243862;23;20404;-78
2023/05/25 05:49:07;;;;;;;15.88;9.80;;;11.70;99.90;;;;;;6217318;23;20011;-78
2023/05/25 05:51:33;;;;;;;16.20;8.27;;;11.80;99.90;;;;;;6243773;23;20373;-78
2023/05/25 05:53:58;;;;;;;18.30;9.57;;;12.00;99.90;;;;;;6244076;23;19996;-78
2023/05/25 05:56:25;;;;;;;15.07;9.13;;;12.20;99.90;;;;;;6244149;23;20476;-78
2023/05/25 05:58:52;;;;;;;17.95;8.63;;;12.30;99.90;;;;;;6244210;23;20075;-78
2023/05/25 06:01:17;;;;;;;11.07;7.72;;;12.40;99.90;;;;;;6243821;23;20006;-78
2023/05/25 06:03:44;;;;;;;14.18;8.05;;;12.50;99.90;;;;;;6243996;23;20075;-78
2023/05/25 06:06:10;;;;;;;15.40;10.05;;;12.50;99.90;;;;;;6216761;23;20026;-78
2023/05/25 06:08:36;;;;;;;15.88;7.63;;;12.50;99.90;;;;;;6216643;23;20430;-78
2023/05/25 06:11:02;;;;;;;14.68;8.65;;;12.50;99.90;;;;;;6243730;23;19996;-78
2023/05/25 06:13:27;;;;;;;18.35;8.55;;;12.50;99.90;;;;;;6243525;23;20091;-78
2023/05/25 06:15:53;;;;;;;16.50;8.50;;;12.50;99.90;;;;;;6216912;23;20011;-78
2023/05/25 06:18:18;;;;;;;20.98;9.20;;;12.50;99.90;;;;;;6243512;23;20023;-78
2023/05/25 06:20:44;;;;;;;17.50;8.77;;;12.50;99.90;;;;;;6217089;23;20007;-78
2023/05/25 06:23:11;;;;;;;16.38;9.05;;;12.60;99.90;;;;;;6242953;23;20460;-78
2023/05/25 06:25:37;;;;;;;17.08;7.65;;;12.60;99.90;;;;;;6216690;23;20039;-79
2023/05/25 06:28:02;;;;;;;14.85;7.30;;;12.70;99.90;;;;;;6243877;23;20000;-78
2023/05/25 06:30:28;;;;;;;19.38;7.28;;;12.80;99.90;;;;;;6243291;23;20086;-78
2023/05/25 06:32:53;;;;;;;13.07;6.07;;;12.90;99.90;;;;;;6243453;23;20358;-78
2023/05/25 06:35:19;;;;;;;16.52;6.43;;;12.90;99.90;;;;;;6216304;23;19996;-78
2023/05/25 06:37:47;;;;;;;12.57;7.20;;;12.90;99.90;;;;;;6243048;23;20008;-78
2023/05/25 06:40:14;;;;;;;14.35;6.85;;;13.00;99.90;;;;;;6243205;23;20368;-77
2023/05/25 06:42:40;;;;;;;16.55;6.63;;;13.10;99.90;;;;;;6243741;23;20418;-79
2023/05/25 06:45:06;;;;;;;19.17;7.85;;;13.20;99.90;;;;;;6243480;23;20019;-78
2023/05/25 06:47:32;;;;;;;16.50;7.35;;;13.30;99.90;;;;;;6243169;23;19997;-78
2023/05/25 06:49:58;;;;;;;15.15;7.15;;;13.40;99.90;;;;;;6243256;23;20049;-78
2023/05/25 06:52:27;;;;;;;15.73;6.68;;;13.50;99.90;;;;;;6242016;23;20465;-74
2023/05/25 06:54:52;;;;;;;17.38;7.47;;;13.60;99.90;;;;;;6215450;23;20026;-73
2023/05/25 06:57:18;;;;;;;12.70;5.82;;;13.70;99.90;;;;;;6215031;23;20035;-73
2023/05/25 06:59:44;;;;;;;16.02;7.85;;;13.90;99.90;;;;;;6242085;23;20022;-72
2023/05/25 07:02:09;;;;;;;14.05;6.15;;;14.10;99.90;;;;;;6242374;23;20000;-73
2023/05/25 07:04:35;;;;;;;10.98;5.72;;;14.20;99.90;;;;;;6214215;23;20004;-73
2023/05/25 07:07:00;;;;;;;14.52;5.90;;;14.40;99.90;;;;;;6242367;23;20075;-73
2023/05/25 07:09:26;;;;;;;14.95;6.38;;;14.60;99.90;;;;;;6240436;23;20001;-73
2023/05/25 07:11:51;;;;;;;15.85;6.78;;;14.60;99.90;;;;;;6214802;23;20004;-73
2023/05/25 07:14:17;;;;;;;15.93;5.03;;;14.70;99.90;;;;;;6242157;23;19993;-74
2023/05/25 07:16:43;;;;;;;16.00;5.05;;;14.70;99.90;;;;;;6242619;23;20004;-71
2023/05/25 07:19:10;;;;;;;19.80;6.38;;;14.80;99.90;;;;;;6241711;23;20000;-72
2023/05/25 07:21:36;;;;;;;12.25;5.35;;;15.00;99.90;;;;;;6242200;23;20008;-72
2023/05/25 07:24:02;;;;;;;14.85;5.95;;;15.10;99.90;;;;;;6215370;23;20383;-72
2023/05/25 07:26:29;;;;;;;15.13;5.22;;;15.20;99.90;;;;;;6214972;23;20414;-72
2023/05/25 07:28:54;;;;;;;11.00;4.75;;;15.30;99.90;;;;;;6242265;23;20092;-72
2023/05/25 07:31:21;;;;;;;9.43;4.15;;;15.40;99.90;;;;;;6242033;23;20032;-72
2023/05/25 07:33:46;;;;;;;11.43;3.95;;;15.40;99.90;;;;;;6241025;23;20456;-72
2023/05/25 07:36:12;;;;;;;11.82;3.78;;;15.50;99.90;;;;;;6242018;23;19996;-72
2023/05/25 07:38:38;;;;;;;13.27;4.68;;;15.60;99.90;;;;;;6242043;23;20007;-72
2023/05/25 07:41:03;;;;;;;14.65;5.13;;;15.60;99.90;;;;;;6242279;23;20006;-72
2023/05/25 07:43:29;;;;;;;8.98;3.15;;;15.70;99.90;;;;;;6214700;23;20322;-71
2023/05/25 07:45:54;;;;;;;11.38;2.83;;;15.70;99.90;;;;;;6242555;23;20039;-72
2023/05/25 07:48:20;;;;;;;16.08;3.35;;;15.80;99.90;;;;;;6240980;23;20000;-72
2023/05/25 07:50:45;;;;;;;9.77;3.97;;;15.80;99.90;;;;;;6242161;23;20083;-72
2023/05/25 07:53:11;;;;;;;9.85;4.03;;;15.90;99.90;;;;;;6241732;23;20020;-72
2023/05/25 07:55:37;;;;;;;9.90;3.65;;;15.90;99.90;;;;;;6242165;23;20000;-72
2023/05/25 07:58:02;;;;;;;9.75;3.92;;;15.90;99.90;;;;;;6241934;23;20008;-72
2023/05/25 08:00:28;;;;;;;9.15;4.13;;;16.00;99.70;;;;;;6242069;23;20000;-72
2023/05/25 08:02:55;;;;;;;10.77;3.95;;;16.10;99.60;;;;;;6214439;23;20030;-72
2023/05/25 08:05:20;;;;;;;12.35;4.05;;;16.30;99.20;;;;;;6241861;23;20014;-72
2023/05/25 08:07:46;;;;;;;11.30;4.03;;;16.40;98.90;;;;;;6241956;23;20075;-72
2023/05/25 08:10:12;;;;;;;10.30;3.17;;;16.40;98.50;;;;;;6241633;23;20008;-72
2023/05/25 08:12:38;;;;;;;8.82;3.22;;;16.50;98.30;;;;;;6241832;23;20084;-72
2023/05/25 08:15:04;;;;;;;7.60;2.97;;;16.70;98.10;;;;;;6241960;23;20003;-71
2023/05/25 08:17:29;;;;;;;12.00;3.63;;;16.90;98.00;;;;;;6241312;23;20079;-72
2023/05/25 08:19:55;;;;;;;10.70;3.85;;;17.10;97.70;;;;;;6241920;23;20464;-72
2023/05/25 08:22:21;;;;;;;12.48;3.53;;;17.20;97.10;;;;;;6241579;23;20469;-72
2023/05/25 08:24:46;;;;;;;13.40;5.15;;;17.20;96.80;;;;;;6241782;23;20019;-71
2023/05/25 08:27:12;;;;;;;12.00;4.03;;;17.20;96.50;;;;;;6241202;23;20008;-72
2023/05/25 08:29:37;;;;;;;9.52;3.10;;;17.10;96.30;;;;;;6241870;23;20000;-71
2023/05/25 08:32:03;;;;;;;13.35;4.40;;;17.00;96.00;;;;;;6241329;23;20004;-72
2023/05/25 08:34:29;;;;;;;11.05;4.57;;;17.00;96.00;;;;;;6241535;23;20004;-72
2023/05/25 08:36:56;;;;;;;9.43;3.28;;;17.00;96.00;;;;;;6241888;23;20505;-73
2023/05/25 08:39:22;;;;;;;7.80;3.42;;;17.10;96.00;;;;;;6241249;23;20444;-72
2023/05/25 08:41:49;;;;;;;12.70;4.07;;;17.10;95.80;;;;;;6241646;23;20000;-72
2023/05/25 08:44:15;;;;;;;10.00;3.72;;;17.10;95.40;;;;;;6241395;23;20011;-72
2023/05/25 08:46:40;;;;;;;9.85;4.43;;;17.10;95.10;;;;;;6241095;23;19996;-72
2023/05/25 08:49:13;;;;;;;10.65;3.85;;;17.10;94.90;;;;;;6241528;23;20004;-72
2023/05/25 08:51:53;;;;;;;8.48;3.13;;;17.00;95.10;;;;;;6241459;23;19996;-72
2023/05/25 08:54:23;;;;;;;7.05;3.70;;;17.00;95.20;;;;;;6241289;23;20066;-72
2023/05/25 08:56:51;;;;;;;9.95;4.25;;;17.00;94.60;;;;;;6241616;23;19996;-72
2023/05/25 08:59:22;;;;;;;10.07;3.70;;;17.00;94.80;;;;;;6241131;23;20000;-72
2023/05/25 09:01:52;;;;;;;11.85;4.97;;;17.00;94.60;;;;;;6241235;23;20003;-73
2023/05/25 09:04:19;;;;;;;15.60;5.85;;;17.10;94.60;;;;;;6240814;23;20422;-71
2023/05/25 09:06:46;;;;;;;11.18;4.03;;;17.10;94.60;;;;;;6239398;23;20008;-72
2023/05/25 09:09:12;;;;;;;12.75;4.30;;;17.20;94.80;;;;;;6238428;23;20133;-72
2023/05/25 09:11:39;;;;;;;12.25;4.07;;;17.30;94.90;;;;;;6240890;23;20012;-72
2023/05/25 09:14:06;;;;;;;9.63;3.58;;;17.60;94.10;;;;;;6242523;23;20066;-72
2023/05/25 09:16:32;;;;;;;9.52;4.15;;;17.60;93.60;;;;;;6241022;23;20027;-73
2023/05/25 09:18:58;;;;;;;12.45;4.35;;;17.60;93.60;;;;;;6241680;23;20031;-73
2023/05/25 09:21:25;;;;;;;7.95;3.53;;;17.60;93.50;;;;;;6241394;23;20082;-72
2023/05/25 09:23:50;;;;;;;10.98;4.47;;;17.60;93.50;;;;;;6241616;23;20027;-73
2023/05/25 09:26:16;;;;;;;11.38;4.50;;;17.50;93.40;;;;;;6241528;23;20016;-72
2023/05/25 09:28:46;;;;;;;8.68;4.38;;;17.50;93.30;;;;;;6240718;23;20004;-72
2023/05/25 09:31:12;;;;;;;12.68;4.53;;;17.30;93.00;;;;;;6239902;23;20000;-72
2023/05/25 09:33:41;;;;;;;9.35;4.53;;;17.10;93.30;;;;;;6240114;23;20011;-72
2023/05/25 09:36:07;;;;;;;13.10;4.55;;;17.00;93.50;;;;;;6240106;23;20092;-72
2023/05/25 09:38:33;;;;;;;9.00;4.55;;;16.80;93.60;;;;;;6239785;23;20003;-72
2023/05/25 09:40:59;;;;;;;10.85;4.10;;;16.80;94.00;;;;;;6213017;23;20004;-72
2023/05/25 09:43:25;;;;;;;8.35;4.55;;;16.90;94.20;;;;;;6239597;23;20004;-72
2023/05/25 09:45:51;;;;;;;10.50;4.60;;;17.20;93.80;;;;;;6239606;23;20009;-73
2023/05/25 09:48:18;;;;;;;10.43;4.15;;;17.40;93.20;;;;;;6239534;23;20046;-72
2023/05/25 09:50:44;;;;;;;8.02;3.70;;;17.70;92.20;;;;;;6213001;23;20003;-71
2023/05/25 09:53:10;;;;;;;10.40;4.10;;;18.00;91.20;;;;;;6239592;23;20124;-72
2023/05/25 09:55:36;;;;;;;10.15;3.72;;;18.10;90.70;;;;;;6239910;23;20077;-72
2023/05/25 09:58:02;;;;;;;12.30;3.67;;;18.30;90.60;;;;;;6239759;23;20422;-72
2023/05/25 10:00:27;;;;;;;10.48;4.10;;;18.50;90.50;;;;;;6238635;23;20001;-72
2023/05/25 10:02:53;;;;;;;10.38;4.22;;;18.60;90.50;;;;;;6239462;23;20430;-73
2023/05/25 10:05:19;;;;;;;8.40;3.58;;;18.80;90.00;;;;;;6211886;23;20438;-72
2023/05/25 10:07:45;;;;;;;8.38;3.47;;;19.00;88.80;;;;;;6240027;23;20414;-73
2023/05/25 10:10:16;;;;;;;8.60;3.90;;;18.90;88.40;;;;;;6240305;23;20291;-73
2023/05/25 10:12:44;;;;;;;5.47;3.80;;;18.80;88.30;;;;;;6240722;23;20032;-72
2023/05/25 10:15:13;;;;;;;11.00;3.60;;;18.60;87.90;;;;;;6240193;23;20003;-71
2023/05/25 10:17:53;;;;;;;9.65;4.03;;;18.50;87.90;;;;;;6238599;23;20011;-71
2023/05/25 10:20:21;;;;;;;8.68;2.90;;;18.40;88.50;;;;;;6240195;23;20019;-71
2023/05/25 10:23:13;;;;;;;6.10;3.05;;;18.50;88.60;;;;;;6240998;23;20026;-71
2023/05/25 10:25:43;;;;;;;9.65;4.15;;;18.60;88.20;;;;;;6189320;23;1040081;-72
2023/05/25 10:28:26;;;;;;;12.18;3.97;;;18.60;87.40;;;;;;6242244;23;20011;-71
2023/05/25 10:30:53;;;;;;;9.43;4.15;;;18.70;87.60;;;;;;6242667;23;20035;-71
2023/05/25 10:33:20;;;;;;;7.47;2.70;;;19.00;86.20;;;;;;6242318;23;20334;-71
2023/05/25 10:35:48;;;;;;;8.80;3.10;;;19.20;84.40;;;;;;6243094;23;20008;-71
2023/05/25 10:38:14;;;;;;;6.93;2.85;;;19.50;83.30;;;;;;6242633;23;20032;-71
2023/05/25 10:40:39;;;;;;;4.95;2.65;;;19.60;83.10;;;;;;6242020;23;20003;-71
2023/05/25 10:43:05;;;;;;;7.45;3.25;;;19.80;81.50;;;;;;6242245;23;20329;-71
2023/05/25 10:45:33;;;;;;;8.35;3.80;;;19.80;80.50;;;;;;6241905;23;20008;-71
2023/05/25 10:47:59;;;;;;;5.18;2.75;;;19.80;79.60;;;;;;6242877;23;20004;-71
2023/05/25 10:50:26;;;;;;;9.27;3.47;;;19.70;79.10;;;;;;6242305;23;20007;-71
2023/05/25 10:52:58;;;;;;;5.75;3.33;;;19.70;80.10;;;;;;6215611;23;20372;-70
2023/05/25 10:55:30;;;;;;;7.85;3.10;;;19.70;80.00;;;;;;6242020;23;20000;-71
2023/05/25 10:58:12;;;;;;;5.25;2.65;;;19.60;80.70;;;;;;6241867;23;19996;-70
2023/05/25 11:00:38;;;;;;;5.68;2.83;;;19.70;80.90;;;;;;6242463;23;20080;-71
2023/05/25 11:03:04;;;;;;;7.78;3.67;;;19.60;80.80;;;;;;6242531;23;20004;-71
2023/05/25 11:05:31;;;;;;;10.55;3.80;;;19.70;80.70;;;;;;6241564;23;20441;-72
2023/05/25 11:07:58;;;;;;;7.70;3.30;;;19.70;80.30;;;;;;6241344;23;20011;-72
2023/05/25 11:10:48;;;;;;;8.35;2.85;;;19.70;80.40;;;;;;6241583;23;19992;-72
2023/05/25 11:13:33;;;;;;;7.78;3.22;;;19.70;80.60;;;;;;6241691;23;20027;-72
2023/05/25 11:16:11;;;;;;;10.32;3.83;;;19.60;80.60;;;;;;6242323;23;20003;-71
2023/05/25 11:18:37;;;;;;;8.60;3.22;;;19.50;81.00;;;;;;6241399;23;19993;-72
2023/05/25 11:21:12;;;;;;;8.93;2.88;;;19.60;81.20;;;;;;6242074;23;20056;-72
2023/05/25 11:24:03;;;;;;;6.25;2.90;;;19.60;80.60;;;;;;6242304;23;20004;-72
2023/05/25 11:26:30;;;;;;;8.13;3.58;;;19.50;79.90;;;;;;6241415;23;20023;-71
2023/05/25 11:28:57;;;;;;;7.82;3.00;;;19.60;80.30;;;;;;6242252;23;20295;-71
2023/05/25 11:31:31;;;;;;;9.10;3.30;;;19.70;80.70;;;;;;6241936;23;20089;-71
2023/05/25 11:34:03;;;;;;;6.68;3.40;;;19.80;79.50;;;;;;6242281;23;20000;-72
2023/05/25 11:36:34;;;;;;;7.70;3.28;;;19.80;79.40;;;;;;6241953;23;20003;-72
2023/05/25 11:39:01;;;;;;;9.30;3.00;;;19.90;78.70;;;;;;6242192;23;20007;-72
2023/05/25 11:41:27;;;;;;;7.85;3.20;;;20.00;78.30;;;;;;6241169;23;20031;-72
2023/05/25 11:43:53;;;;;;;7.93;3.17;;;20.00;77.90;;;;;;6241761;23;20323;-72
2023/05/25 11:46:20;;;;;;;7.32;2.80;;;20.00;76.90;;;;;;6241672;23;20007;-72
2023/05/25 11:48:53;;;;;;;6.85;2.70;;;20.00;77.30;;;;;;6242067;23;20000;-72
2023/05/25 11:51:27;;;;;;;7.22;3.17;;;20.00;77.20;;;;;;6241720;23;19996;-72
2023/05/25 11:53:53;;;;;;;5.40;3.00;;;20.00;76.90;;;;;;6242043;23;19997;-72
2023/05/25 11:56:21;;;;;;;6.65;3.45;;;20.00;76.70;;;;;;6240712;23;20202;-72
2023/05/25 11:58:48;;;;;;;7.72;3.25;;;20.10;77.20;;;;;;6215177;23;20033;-72
2023/05/25 12:01:19;;;;;;;6.15;3.47;;;20.20;75.30;;;;;;6241455;23;19996;-72
2023/05/25 12:03:55;;;;;;;6.80;3.28;;;20.30;74.40;;;;;;6241947;23;20004;-72
2023/05/25 12:06:35;;;;;;;8.38;3.38;;;20.50;75.00;;;;;;6214700;23;20383;-72
2023/05/25 12:09:03;;;;;;;8.95;3.20;;;20.80;73.90;;;;;;6242203;23;20035;-72
2023/05/25 12:11:31;;;;;;;8.77;3.10;;;20.80;73.60;;;;;;6212263;23;20004;-72
2023/05/25 12:13:58;;;;;;;5.90;3.25;;;20.80;72.70;;;;;;6240827;23;20011;-72
2023/05/25 12:16:24;;;;;;;5.55;2.80;;;20.60;71.00;;;;;;6239832;23;20003;-72
2023/05/25 12:18:51;;;;;;;4.85;2.80;;;20.40;70.90;;;;;;6240825;23;19998;-72
2023/05/25 12:21:18;;;;;;;9.57;2.92;;;20.40;71.90;;;;;;6240585;23;20085;-72
2023/05/25 12:23:43;;;;;;;5.05;2.80;;;20.50;72.40;;;;;;6236372;23;20522;-72
2023/05/25 12:26:11;;;;;;;4.93;2.60;;;20.70;72.50;;;;;;6215008;23;20043;-72
2023/05/25 12:28:37;;;;;;;9.60;4.07;;;20.70;72.00;;;;;;6241886;23;20050;-72
2023/05/25 12:31:22;;;;;;;8.55;4.18;;;20.50;72.40;;;;;;6241265;23;20016;-71
2023/05/25 12:34:05;;;;;;;7.13;3.67;;;20.50;72.30;;;;;;6239366;23;20187;-72
2023/05/25 12:36:45;;;;;;;9.07;3.40;;;20.50;72.20;;;;;;6240572;23;20130;-72
2023/05/25 12:39:13;;;;;;;8.45;3.67;;;20.40;71.70;;;;;;6237522;23;20010;-72
2023/05/25 12:41:58;;;;;;;10.90;4.22;;;20.30;72.30;;;;;;6241231;23;20007;-72